createdAt,value
2022-08-23T00:01:37.875Z,100705.75
2022-08-23T00:03:41.019Z,100688.81
2022-08-23T00:05:42.845Z,100697.72
2022-08-23T00:07:44.904Z,100696.47
2022-08-23T00:09:46.667Z,100700.78
2022-08-23T00:12:10.941Z,100699.16
2022-08-23T00:14:20.574Z,100697.91
2022-08-23T00:16:22.531Z,100702.72
2022-08-23T00:18:24.817Z,100700.19
2022-08-23T00:20:26.545Z,100704.56
2022-08-23T00:22:28.412Z,100700.84
2022-08-23T00:24:30.585Z,100695.03
2022-08-23T00:26:55.824Z,100697.31
2022-08-23T00:28:57.585Z,100701.91
2022-08-23T00:30:59.933Z,100693.59
2022-08-23T00:33:02.105Z,100693.16
2022-08-23T00:35:05.264Z,100696.72
2022-08-23T00:37:09.168Z,100687.59
2022-08-23T00:39:11.853Z,100683.88
2022-08-23T00:41:13.713Z,100683.44
2022-08-23T00:43:30.162Z,100687.59
2022-08-23T00:45:54.858Z,100694.00
2022-08-23T00:47:56.895Z,100695.66
2022-08-23T00:50:24.878Z,100704.78
2022-08-23T00:52:39.400Z,100697.34
2022-08-23T00:54:42.081Z,100703.34
2022-08-23T00:56:44.248Z,100699.59
2022-08-23T00:58:47.009Z,100702.91
2022-08-23T01:00:51.766Z,100711.19
2022-08-23T01:02:54.423Z,100702.31
2022-08-23T01:04:59.617Z,100708.28
2022-08-23T01:07:12.876Z,100701.84
2022-08-23T01:09:18.174Z,100712.41
2022-08-23T01:11:30.563Z,100711.78
2022-08-23T01:13:41.101Z,100714.50
2022-08-23T01:15:56.219Z,100721.09
2022-08-23T01:18:10.521Z,100711.59
2022-08-23T01:20:22.430Z,100725.44
2022-08-23T01:22:47.936Z,100725.88
2022-08-23T01:25:07.111Z,100729.19
2022-08-23T01:27:12.866Z,100723.41
2022-08-23T01:29:15.007Z,100728.78
2022-08-23T01:31:18.034Z,100740.59
2022-08-23T01:33:20.298Z,100718.63
2022-08-23T01:35:30.431Z,100727.53
2022-08-23T01:37:33.464Z,100729.00
2022-08-23T01:39:36.099Z,100721.94
2022-08-23T01:41:37.950Z,100737.69
2022-08-23T01:43:39.718Z,100728.38
2022-08-23T01:45:42.390Z,100729.59
2022-08-23T01:47:44.233Z,100736.22
2022-08-23T01:49:45.949Z,100738.28
2022-08-23T01:51:47.822Z,100745.34
2022-08-23T01:53:49.666Z,100755.09
2022-08-23T01:55:51.786Z,100743.06
2022-08-23T01:57:57.430Z,100745.09
2022-08-23T01:59:59.454Z,100745.53
2022-08-23T02:02:01.250Z,100747.19
2022-08-23T02:04:05.230Z,100727.72
2022-08-23T02:06:07.631Z,100704.97
2022-08-23T02:08:09.728Z,100746.78
2022-08-23T02:10:11.524Z,100754.44
2022-08-23T02:12:13.259Z,100753.41
2022-08-23T02:14:18.321Z,100752.34
2022-08-23T02:16:26.210Z,100748.22
2022-08-23T02:18:30.733Z,100749.25
2022-08-23T02:20:32.570Z,100746.78
2022-08-23T02:22:34.472Z,100742.00
2022-08-23T02:24:40.809Z,100744.50
2022-08-23T02:26:46.327Z,100748.03
2022-08-23T02:28:51.692Z,100751.75
2022-08-23T02:30:58.150Z,100754.66
2022-08-23T02:33:00.253Z,100755.69
2022-08-23T02:35:05.656Z,100749.91
2022-08-23T02:37:10.255Z,100757.78
2022-08-23T02:39:13.777Z,100747.84
2022-08-23T02:41:15.854Z,100747.84
2022-08-23T02:43:17.579Z,100747.03
2022-08-23T02:45:19.366Z,100742.69
2022-08-23T02:47:21.290Z,100740.59
2022-08-23T02:49:23.211Z,100735.22
2022-08-23T02:51:25.164Z,100737.66
2022-08-23T02:53:27.132Z,100737.25
2022-08-23T02:55:29.036Z,100734.38
2022-08-23T02:57:31.513Z,100738.28
2022-08-23T02:59:34.093Z,100742.44
2022-08-23T03:01:38.551Z,100738.69
2022-08-23T03:03:40.320Z,100740.34
2022-08-23T03:05:43.397Z,100741.19
2022-08-23T03:07:45.365Z,100725.69
2022-08-23T03:09:47.115Z,100736.03
2022-08-23T03:11:49.881Z,100727.34
2022-08-23T03:13:53.287Z,100725.28
2022-08-23T03:15:55.189Z,100727.72
2022-08-23T03:17:56.946Z,100720.47
2022-08-23T03:19:58.707Z,100733.94
2022-08-23T03:22:00.469Z,100739.97
2022-08-23T03:24:04.781Z,100740.16
2022-08-23T03:26:12.455Z,100734.38
2022-08-23T03:28:14.226Z,100738.72
2022-08-23T03:30:19.707Z,100731.06
2022-08-23T03:32:21.780Z,100724.44
2022-08-23T03:34:26.885Z,100723.63
2022-08-23T03:36:28.794Z,100719.25
2022-08-23T03:38:30.549Z,100724.44
2022-08-23T03:40:32.332Z,100719.69
2022-08-23T03:42:34.608Z,100708.69
2022-08-23T03:44:36.366Z,100709.75
2022-08-23T03:46:38.096Z,100702.69
2022-08-23T03:48:40.217Z,100710.97
2022-08-23T03:50:41.989Z,100701.47
2022-08-23T03:52:43.750Z,100702.25
2022-08-23T03:54:45.606Z,100714.25
2022-08-23T03:57:02.330Z,100713.81
2022-08-23T03:59:09.261Z,100713.66
2022-08-23T04:01:11.144Z,100713.44
2022-08-23T04:03:12.923Z,100716.72
2022-08-23T04:05:15.719Z,100717.75
2022-08-23T04:07:21.668Z,100710.28
2022-08-23T04:09:23.467Z,100713.16
2022-08-23T04:11:25.822Z,100708.19
2022-08-23T04:13:27.777Z,100725.59
2022-08-23T04:15:29.600Z,100729.13
2022-08-23T04:17:32.688Z,100724.34
2022-08-23T04:19:34.623Z,100717.56
2022-08-23T04:21:38.215Z,100721.06
2022-08-23T04:23:40.407Z,100717.13
2022-08-23T04:25:42.174Z,100726.44
2022-08-23T04:27:43.970Z,100733.28
2022-08-23T04:29:45.751Z,100742.22
2022-08-23T04:31:47.471Z,100740.09
2022-08-23T04:33:52.492Z,100745.91
2022-08-23T04:35:54.488Z,100745.69
2022-08-23T04:37:56.450Z,100752.13
2022-08-23T04:39:58.268Z,100763.94
2022-08-23T04:42:00.029Z,100762.66
2022-08-23T04:44:02.158Z,100759.31
2022-08-23T04:46:03.908Z,100754.09
2022-08-23T04:48:06.344Z,100754.28
2022-08-23T04:50:14.017Z,100763.31
2022-08-23T04:52:19.192Z,100754.41
2022-08-23T04:54:22.615Z,100758.50
2022-08-23T04:56:24.783Z,100753.72
2022-08-23T04:58:26.561Z,100760.38
2022-08-23T05:00:28.436Z,100760.72
2022-08-23T05:02:30.287Z,100756.94
2022-08-23T05:04:32.049Z,100759.44
2022-08-23T05:06:34.082Z,100757.75
2022-08-23T05:08:35.969Z,100755.84
2022-08-23T05:10:37.769Z,100755.44
2022-08-23T05:12:39.654Z,100757.97
2022-08-23T05:14:41.554Z,100765.03
2022-08-23T05:16:49.679Z,100750.69
2022-08-23T05:18:51.801Z,100768.16
2022-08-23T05:20:53.822Z,100766.63
2022-08-23T05:22:55.578Z,100772.13
2022-08-23T05:24:57.299Z,100774.56
2022-08-23T05:26:59.358Z,100765.34
2022-08-23T05:29:01.105Z,100779.03
2022-08-23T05:31:11.517Z,100784.13
2022-08-23T05:33:14.001Z,100778.84
2022-08-23T05:35:16.793Z,100775.81
2022-08-23T05:37:18.737Z,100775.03
2022-08-23T05:39:26.366Z,100788.84
2022-08-23T05:41:38.694Z,100781.91
2022-08-23T05:43:40.545Z,100790.50
2022-08-23T05:45:42.591Z,100796.00
2022-08-23T05:47:45.309Z,100797.72
2022-08-23T05:49:47.065Z,100799.47
2022-08-23T05:51:51.620Z,100794.41
2022-08-23T05:53:55.270Z,100798.84
2022-08-23T05:55:56.973Z,100795.31
2022-08-23T05:57:59.083Z,100787.59
2022-08-23T06:00:00.907Z,100794.50
2022-08-23T06:02:02.697Z,100792.25
2022-08-23T06:04:07.249Z,100799.31
2022-08-23T06:06:09.615Z,100798.38
2022-08-23T06:08:11.370Z,100803.69
2022-08-23T06:10:16.298Z,100774.41
2022-08-23T06:12:18.191Z,100806.31
2022-08-23T06:14:20.229Z,100806.31
2022-08-23T06:16:27.203Z,100805.53
2022-08-23T06:18:28.916Z,100808.63
2022-08-23T06:20:30.718Z,100807.16
2022-08-23T06:22:32.980Z,100798.72
2022-08-23T06:24:35.143Z,100802.34
2022-08-23T06:26:39.489Z,100803.63
2022-08-23T06:28:51.149Z,100805.75
2022-08-23T06:30:57.403Z,100808.25
2022-08-23T06:32:59.198Z,100811.50
2022-08-23T06:35:37.977Z,100801.44
2022-08-23T06:37:22.974Z,100801.00
2022-08-23T06:39:28.354Z,100798.53
2022-08-23T06:41:30.561Z,100793.41
2022-08-23T06:43:33.636Z,100792.78
2022-08-23T06:45:35.626Z,100798.28
2022-08-23T06:47:37.613Z,100785.84
2022-08-23T06:49:39.446Z,100796.13
2022-08-23T06:51:45.955Z,100784.00
2022-08-23T06:53:48.180Z,100789.16
2022-08-23T06:55:51.642Z,100792.84
2022-08-23T06:57:53.722Z,100790.56
2022-08-23T06:59:55.940Z,100795.81
2022-08-23T07:02:00.836Z,100793.47
2022-08-23T07:04:05.032Z,100789.19
2022-08-23T07:06:07.237Z,100791.56
2022-08-23T07:08:08.980Z,100798.94
2022-08-23T07:10:10.786Z,100799.94
2022-08-23T07:12:12.933Z,100803.31
2022-08-23T07:14:17.421Z,100805.16
2022-08-23T07:16:20.013Z,100799.88
2022-08-23T07:18:22.025Z,100807.66
2022-08-23T07:20:23.780Z,100795.44
2022-08-23T07:22:25.509Z,100800.63
2022-08-23T07:24:32.924Z,100797.81
2022-08-23T07:26:36.627Z,100806.69
2022-08-23T07:28:39.648Z,100805.22
2022-08-23T07:30:45.157Z,100789.03
2022-08-23T07:32:47.246Z,100798.56
2022-08-23T07:34:48.997Z,100801.91
2022-08-23T07:36:52.702Z,100807.44
2022-08-23T07:38:54.852Z,100807.00
2022-08-23T07:40:56.595Z,100804.59
2022-08-23T07:42:58.656Z,100811.59
2022-08-23T07:45:01.305Z,100807.59
2022-08-23T07:47:03.056Z,100804.00
2022-08-23T07:49:05.570Z,100810.38
2022-08-23T07:51:11.623Z,100805.44
2022-08-23T07:53:13.430Z,100801.69
2022-08-23T07:55:17.438Z,100808.06
2022-08-23T07:57:19.150Z,100809.34
2022-08-23T07:59:20.933Z,100812.16
2022-08-23T08:01:28.767Z,100802.81
2022-08-23T08:03:30.551Z,100813.81
2022-08-23T08:05:33.680Z,100810.03
2022-08-23T08:07:37.682Z,100812.09
2022-08-23T08:09:39.626Z,100804.31
2022-08-23T08:11:44.437Z,100806.50
2022-08-23T08:13:48.753Z,100798.84
2022-08-23T08:15:50.535Z,100808.16
2022-08-23T08:17:52.846Z,100806.88
2022-08-23T08:19:54.888Z,100811.53
2022-08-23T08:21:56.656Z,100817.41
2022-08-23T08:23:58.763Z,100816.34
2022-08-23T08:26:02.863Z,100806.59
2022-08-23T08:28:04.650Z,100815.94
2022-08-23T08:30:08.051Z,100815.03
2022-08-23T08:32:13.944Z,100820.44
2022-08-23T08:34:15.904Z,100813.00
2022-08-23T08:36:36.321Z,100820.13
2022-08-23T08:38:50.321Z,100819.41
2022-08-23T08:41:16.044Z,100819.81
2022-08-23T08:43:37.985Z,100818.94
2022-08-23T08:46:09.728Z,100815.78
2022-08-23T08:48:15.247Z,100818.63
2022-08-23T08:50:22.097Z,100817.44
2022-08-23T08:52:32.656Z,100817.63
2022-08-23T08:54:34.812Z,100822.50
2022-08-23T08:56:39.030Z,100815.19
2022-08-23T08:58:47.837Z,100816.00
2022-08-23T09:00:53.862Z,100815.19
2022-08-23T09:03:00.653Z,100827.34
2022-08-23T09:05:07.193Z,100821.75
2022-08-23T09:07:39.933Z,100822.44
2022-08-23T09:10:13.318Z,100816.53
2022-08-23T09:12:27.066Z,100822.13
2022-08-23T09:14:43.786Z,100821.22
2022-08-23T09:16:52.546Z,100827.13
2022-08-23T09:18:54.332Z,100824.50
2022-08-23T09:20:56.071Z,100826.28
2022-08-23T09:23:11.691Z,100824.28
2022-08-23T09:25:15.468Z,100816.72
2022-08-23T09:27:17.287Z,100818.41
2022-08-23T09:29:26.755Z,100817.56
2022-08-23T09:31:43.842Z,100814.09
2022-08-23T09:33:45.851Z,100809.59
2022-08-23T09:36:24.230Z,100822.13
2022-08-23T09:38:25.991Z,100822.41
2022-08-23T09:40:33.299Z,100819.78
2022-08-23T09:42:38.242Z,100823.25
2022-08-23T09:44:42.928Z,100820.50
2022-08-23T09:46:44.659Z,100814.09
2022-08-23T09:48:46.479Z,100814.16
2022-08-23T09:50:53.542Z,100817.09
2022-08-23T09:53:06.294Z,100816.34
2022-08-23T09:55:28.842Z,100819.28
2022-08-23T09:57:33.274Z,100822.53
2022-08-23T09:59:40.346Z,100826.06
2022-08-23T10:01:48.529Z,100829.09
2022-08-23T10:04:10.996Z,100832.44
2022-08-23T10:06:30.971Z,100824.53
2022-08-23T10:08:40.896Z,100829.63
2022-08-23T10:10:55.938Z,100830.63
2022-08-23T10:12:58.794Z,100817.75
2022-08-23T10:15:01.351Z,100831.69
2022-08-23T10:17:19.398Z,100830.13
2022-08-23T10:19:32.010Z,100830.53
2022-08-23T10:21:39.691Z,100817.47
2022-08-23T10:24:17.627Z,100822.34
2022-08-23T10:26:33.294Z,100825.66
2022-08-23T10:28:44.311Z,100822.47
2022-08-23T10:31:02.933Z,100821.00
2022-08-23T10:33:15.358Z,100819.94
2022-08-23T10:35:37.613Z,100822.41
2022-08-23T10:37:58.067Z,100815.88
2022-08-23T10:40:04.410Z,100815.28
2022-08-23T10:42:24.230Z,100815.22
2022-08-23T10:44:31.813Z,100811.16
2022-08-23T10:46:42.894Z,100803.66
2022-08-23T10:48:54.191Z,100818.94
2022-08-23T10:51:03.203Z,100797.59
2022-08-23T10:53:14.586Z,100813.41
2022-08-23T10:55:25.960Z,100810.22
2022-08-23T10:57:36.472Z,100822.19
2022-08-23T10:59:38.741Z,100810.25
2022-08-23T11:01:46.245Z,100820.53
2022-08-23T11:04:01.462Z,100816.63
2022-08-23T11:06:40.204Z,100820.84
2022-08-23T11:08:46.908Z,100817.34
2022-08-23T11:10:53.758Z,100812.50
2022-08-23T11:13:03.722Z,100818.59
2022-08-23T11:15:12.631Z,100798.59
2022-08-23T11:17:29.497Z,100810.69
2022-08-23T11:19:52.502Z,100814.25
2022-08-23T11:22:14.986Z,100811.47
2022-08-23T11:24:29.465Z,100806.63
2022-08-23T11:26:37.222Z,100806.41
2022-08-23T11:28:46.236Z,100804.03
2022-08-23T11:30:51.188Z,100807.66
2022-08-23T11:32:53.937Z,100805.81
2022-08-23T11:35:27.316Z,100795.63
2022-08-23T11:37:47.492Z,100807.66
2022-08-23T11:39:58.392Z,100799.44
2022-08-23T11:42:02.668Z,100796.38
2022-08-23T11:44:04.361Z,100805.94
2022-08-23T11:46:27.542Z,100801.41
2022-08-23T11:48:43.401Z,100817.56
2022-08-23T11:50:57.540Z,100806.34
2022-08-23T11:53:02.821Z,100801.19
2022-08-23T11:55:21.272Z,100789.34
2022-08-23T11:57:52.232Z,100789.34
2022-08-23T12:00:45.831Z,100784.19
2022-08-23T12:02:53.787Z,100792.97
2022-08-23T12:04:59.719Z,100788.31
2022-08-23T12:07:02.188Z,100787.41
2022-08-23T12:09:22.419Z,100790.09
2022-08-23T12:11:25.753Z,100798.50
2022-08-23T12:13:53.497Z,100789.97
2022-08-23T12:16:16.598Z,100779.81
2022-08-23T12:18:24.984Z,100776.28
2022-08-23T12:20:30.441Z,100781.78
2022-08-23T12:22:52.059Z,100770.84
2022-08-23T12:25:04.305Z,100778.75
2022-08-23T12:27:13.987Z,100789.91
2022-08-23T12:29:31.993Z,100800.59
2022-08-23T12:31:38.937Z,100807.13
2022-08-23T12:33:55.971Z,100806.56
2022-08-23T12:36:24.965Z,100817.38
2022-08-23T12:38:58.458Z,100831.78
2022-08-23T12:41:17.650Z,100823.56
2022-08-23T12:43:27.391Z,100814.56
2022-08-23T12:45:47.273Z,100820.25
2022-08-23T12:48:01.472Z,100842.00
2022-08-23T12:50:40.241Z,100869.25
2022-08-23T12:52:42.605Z,100871.47
2022-08-23T12:54:50.518Z,100878.81
2022-08-23T12:56:54.353Z,100878.22
2022-08-23T12:59:00.214Z,100890.91
2022-08-23T13:01:07.626Z,100913.09
2022-08-23T13:03:20.997Z,100914.63
2022-08-23T13:05:28.114Z,100914.59
2022-08-23T13:07:30.658Z,100901.34
2022-08-23T13:09:36.895Z,100903.88
2022-08-23T13:11:39.794Z,100873.41
2022-08-23T13:13:43.443Z,100864.28
2022-08-23T13:15:54.278Z,100838.56
2022-08-23T13:18:01.201Z,100857.41
2022-08-23T13:20:03.240Z,100847.28
2022-08-23T13:22:19.846Z,100843.34
2022-08-23T13:24:37.933Z,100834.22
2022-08-23T13:26:45.262Z,100840.59
2022-08-23T13:29:08.422Z,100824.47
2022-08-23T13:31:10.454Z,100837.13
2022-08-23T13:33:15.087Z,100828.41
2022-08-23T13:35:37.099Z,100816.81
2022-08-23T13:37:47.231Z,100817.00
2022-08-23T13:39:56.974Z,100815.53
2022-08-23T13:41:59.292Z,100823.81
2022-08-23T13:44:07.246Z,100837.31
2022-08-23T13:46:17.669Z,100832.97
2022-08-23T13:48:30.243Z,100855.56
2022-08-23T13:50:34.576Z,100851.41
2022-08-23T13:53:03.200Z,100858.69
2022-08-23T14:07:09.563Z,100835.22
2022-08-23T14:09:11.372Z,100836.47
2022-08-23T14:11:13.948Z,100826.31
2022-08-23T14:13:17.652Z,100822.59
2022-08-23T14:15:19.668Z,100827.56
2022-08-23T14:17:21.754Z,100835.88
2022-08-23T14:21:45.842Z,100852.03
2022-08-23T14:23:47.683Z,100860.75
2022-08-23T14:25:53.292Z,100853.50
2022-08-23T14:27:55.105Z,100846.66
2022-08-23T14:29:56.883Z,100850.59
2022-08-23T14:32:00.321Z,100848.94
2022-08-23T14:34:02.405Z,100851.84
2022-08-23T14:36:05.797Z,100867.38
2022-08-23T14:38:07.855Z,100854.09
2022-08-23T14:40:10.360Z,100862.41
2022-08-23T14:42:15.712Z,100871.34
2022-08-23T14:44:17.825Z,100871.53
2022-08-23T14:46:20.822Z,100886.66
2022-08-23T14:48:23.015Z,100890.59
2022-08-23T14:50:24.958Z,100888.66
2022-08-23T14:52:29.629Z,100895.09
2022-08-23T14:54:32.547Z,100892.56
2022-08-23T14:56:34.661Z,100891.78
2022-08-23T14:58:36.463Z,100874.13
2022-08-23T15:00:38.380Z,100875.38
2022-08-23T15:02:45.064Z,100858.16
2022-08-23T15:04:46.878Z,100875.94
2022-08-23T15:07:16.188Z,100869.00
2022-08-23T15:09:13.086Z,100894.16
2022-08-23T15:13:54.841Z,100892.53
2022-08-23T15:16:01.374Z,100890.13
2022-08-23T15:18:08.551Z,100886.97
2022-08-23T15:20:11.102Z,100890.09
2022-08-23T15:22:18.350Z,100887.72
2022-08-23T15:24:23.064Z,100889.53
2022-08-23T15:26:28.422Z,100883.84
2022-08-23T15:28:30.840Z,100878.00
2022-08-23T15:30:33.557Z,100874.78
2022-08-23T15:32:35.618Z,100865.75
2022-08-23T15:34:40.155Z,100858.91
2022-08-23T15:36:47.740Z,100863.41
2022-08-23T15:38:49.633Z,100865.78
2022-08-23T15:40:53.653Z,100869.09
2022-08-23T15:42:55.457Z,100864.66
2022-08-23T15:44:57.272Z,100867.03
2022-08-23T15:46:59.209Z,100871.47
2022-08-23T15:49:12.558Z,100871.78
2022-08-23T15:51:16.182Z,100873.94
2022-08-23T15:53:18.373Z,100880.88
2022-08-23T15:55:20.602Z,100883.75
2022-08-23T15:57:27.802Z,100891.28
2022-08-23T15:59:32.270Z,100885.13
2022-08-23T16:01:34.082Z,100879.31
2022-08-23T16:03:36.795Z,100880.56
2022-08-23T16:05:40.479Z,100891.22
2022-08-23T16:07:43.466Z,100896.53
2022-08-23T16:09:45.415Z,100893.31
2022-08-23T16:11:47.897Z,100899.31
2022-08-23T16:13:50.161Z,100895.66
2022-08-23T16:15:55.732Z,100897.56
2022-08-23T16:17:57.760Z,100905.84
2022-08-23T16:19:59.533Z,100902.44
2022-08-23T16:22:01.640Z,100907.03
2022-08-23T16:24:04.452Z,100923.59
2022-08-23T16:26:15.295Z,100923.53
2022-08-23T16:28:18.095Z,100929.31
2022-08-23T16:30:20.009Z,100926.38
2022-08-23T16:32:21.795Z,100915.41
2022-08-23T16:34:23.620Z,100909.34
2022-08-23T16:36:30.163Z,100919.47
2022-08-23T16:38:32.099Z,100908.78
2022-08-23T16:40:33.919Z,100923.19
2022-08-23T16:42:35.827Z,100915.88
2022-08-23T16:44:37.656Z,100914.22
2022-08-23T16:46:41.216Z,100923.34
2022-08-23T16:48:44.838Z,100936.09
2022-08-23T16:50:46.800Z,100928.06
2022-08-23T16:52:49.635Z,100934.09
2022-08-23T16:54:51.708Z,100934.13
2022-08-23T16:56:54.614Z,100942.03
2022-08-23T16:58:57.284Z,100947.13
2022-08-23T17:00:59.321Z,100943.66
2022-08-23T17:03:01.339Z,100945.16
2022-08-23T17:05:07.010Z,100940.81
2022-08-23T17:07:08.877Z,100948.91
2022-08-23T17:09:10.767Z,100947.03
2022-08-23T17:11:18.878Z,100938.94
2022-08-23T17:13:21.101Z,100949.94
2022-08-23T17:15:30.912Z,100949.88
2022-08-23T17:17:33.255Z,100951.28
2022-08-23T17:19:35.152Z,100951.56
2022-08-23T17:21:37.020Z,100955.28
2022-08-23T17:23:40.804Z,100965.00
2022-08-23T17:25:44.987Z,100967.72
2022-08-23T17:27:48.946Z,100962.59
2022-08-23T17:29:51.688Z,100957.44
2022-08-23T17:31:56.729Z,100963.50
2022-08-23T17:33:58.466Z,100970.78
2022-08-23T17:36:00.354Z,100976.84
2022-08-23T17:38:05.423Z,100986.22
2022-08-23T17:40:10.326Z,100984.00
2022-08-23T17:42:15.003Z,100978.75
2022-08-23T17:44:17.562Z,100989.75
2022-08-23T17:46:19.406Z,100983.34
2022-08-23T17:48:21.690Z,100994.56
2022-08-23T17:50:24.651Z,100995.34
2022-08-23T17:52:26.811Z,100994.25
2022-08-23T17:54:28.551Z,100992.97
2022-08-23T17:56:30.606Z,100990.09
2022-08-23T17:58:32.325Z,100988.69
2022-08-23T18:00:36.588Z,100993.63
2022-08-23T18:02:38.584Z,100997.59
2022-08-23T18:04:40.351Z,101001.59
2022-08-23T18:06:42.178Z,101000.78
2022-08-23T18:08:44.960Z,101000.13
2022-08-23T18:10:47.045Z,100995.34
2022-08-23T18:12:48.883Z,101005.47
2022-08-23T18:14:51.590Z,101000.75
2022-08-23T18:16:54.901Z,101018.00
2022-08-23T18:18:57.720Z,101024.88
2022-08-23T18:21:05.127Z,101036.09
2022-08-23T18:23:06.899Z,101044.00
2022-08-23T18:25:11.386Z,101039.63
2022-08-23T18:27:13.413Z,101046.94
2022-08-23T18:29:15.225Z,101047.75
2022-08-23T18:31:17.000Z,101045.28
2022-08-23T18:33:21.438Z,101048.38
2022-08-23T18:35:27.311Z,101043.22
2022-08-23T18:37:29.053Z,101056.91
2022-08-23T18:39:31.951Z,101060.66
2022-08-23T18:41:34.909Z,101048.19
2022-08-23T18:43:37.663Z,101057.34
2022-08-23T18:45:40.070Z,101057.13
2022-08-23T18:47:41.901Z,101054.63
2022-08-23T18:49:43.702Z,101056.91
2022-08-23T18:51:45.688Z,101052.13
2022-08-23T18:53:47.516Z,101048.81
2022-08-23T18:55:49.702Z,101043.22
2022-08-23T18:57:52.066Z,101042.41
2022-08-23T18:59:53.805Z,101046.56
2022-08-23T19:01:56.202Z,101042.81
2022-08-23T19:04:00.422Z,101037.88
2022-08-23T19:06:08.729Z,101032.88
2022-08-23T19:08:12.079Z,101038.25
2022-08-23T19:10:18.376Z,101034.53
2022-08-23T19:12:22.122Z,101033.72
2022-08-23T19:14:24.007Z,101034.31
2022-08-23T19:16:26.306Z,101032.03
2022-08-23T19:18:28.091Z,101029.97
2022-08-23T19:20:30.335Z,101034.53
2022-08-23T19:22:32.291Z,101012.34
2022-08-23T19:24:34.121Z,101041.16
2022-08-23T19:26:35.953Z,101040.53
2022-08-23T19:28:38.334Z,101051.53
2022-08-23T19:30:41.014Z,101045.31
2022-08-23T19:32:44.029Z,101051.34
2022-08-23T19:34:47.576Z,101043.84
2022-08-23T19:36:56.805Z,101045.69
2022-08-23T19:39:00.834Z,101043.19
2022-08-23T19:41:03.662Z,101035.13
2022-08-23T19:43:05.428Z,101043.84
2022-08-23T19:45:07.934Z,101041.94
2022-08-23T19:47:13.371Z,101044.03
2022-08-23T19:49:21.702Z,101056.53
2022-08-23T19:51:23.520Z,101060.69
2022-08-23T19:53:25.933Z,101063.16
2022-08-23T19:55:27.766Z,101021.66
2022-08-23T19:57:29.650Z,101065.00
2022-08-23T19:59:35.129Z,101059.03
2022-08-23T20:01:37.070Z,101065.41
2022-08-23T20:03:38.860Z,101062.72
2022-08-23T20:05:40.743Z,101053.63
2022-08-23T20:07:43.977Z,101053.00
2022-08-23T20:09:46.391Z,101054.03
2022-08-23T20:11:49.774Z,101045.72
2022-08-23T20:13:51.572Z,101041.78
2022-08-23T20:15:56.314Z,101037.81
2022-08-23T20:17:58.577Z,101037.84
2022-08-23T20:20:00.341Z,101043.88
2022-08-23T20:22:03.657Z,101048.44
2022-08-23T20:24:06.863Z,101022.91
2022-08-23T20:26:08.667Z,101051.13
2022-08-23T20:28:10.439Z,101058.38
2022-08-23T20:30:13.668Z,101063.53
2022-08-23T20:32:15.454Z,101057.25
2022-08-23T20:34:17.402Z,101058.41
2022-08-23T20:36:19.877Z,101059.22
2022-08-23T20:38:21.728Z,101061.25
2022-08-23T20:40:34.806Z,101057.94
2022-08-23T20:42:38.187Z,101055.88
2022-08-23T20:44:39.985Z,101055.91
2022-08-23T20:46:42.040Z,101061.38
2022-08-23T20:48:43.967Z,101056.81
2022-08-23T20:50:45.794Z,101062.19
2022-08-23T20:52:47.545Z,101062.19
2022-08-23T20:54:49.473Z,101066.13
2022-08-23T20:56:52.032Z,101066.13
2022-08-23T20:58:53.759Z,101071.91
2022-08-23T21:00:55.899Z,101072.56
2022-08-23T21:02:57.747Z,101064.06
2022-08-23T21:04:59.583Z,101062.88
2022-08-23T21:07:01.831Z,101063.09
2022-08-23T21:09:04.364Z,101059.38
2022-08-23T21:11:06.427Z,101054.78
2022-08-23T21:13:10.693Z,101058.25
2022-08-23T21:15:12.596Z,101045.31
2022-08-23T21:17:14.349Z,101039.91
2022-08-23T21:19:16.623Z,101041.94
2022-08-23T21:21:21.568Z,101042.00
2022-08-23T21:23:23.553Z,101042.59
2022-08-23T21:25:25.550Z,101047.59
2022-08-23T21:27:27.325Z,101045.09
2022-08-23T21:29:29.061Z,101034.03
2022-08-23T21:31:31.339Z,101037.84
2022-08-23T21:33:35.597Z,101029.09
2022-08-23T21:35:41.299Z,101042.97
2022-08-23T21:37:43.309Z,101044.19
2022-08-23T21:39:45.061Z,101044.44
2022-08-23T21:41:48.350Z,101036.41
2022-08-23T21:43:50.393Z,101049.09
2022-08-23T21:45:52.258Z,101041.66
2022-08-23T21:47:54.021Z,101040.38
2022-08-23T21:49:55.926Z,101043.47
2022-08-23T21:51:57.712Z,101049.97
2022-08-23T21:53:59.629Z,101050.34
2022-08-23T21:56:01.611Z,101054.13
2022-08-23T21:58:03.414Z,101053.50
2022-08-23T22:00:11.914Z,101058.84
2022-08-23T22:02:13.953Z,101052.19
2022-08-23T22:04:15.916Z,101053.22
2022-08-23T22:06:18.086Z,101057.59
2022-08-23T22:08:20.260Z,101061.97
2022-08-23T22:10:22.112Z,101053.69
2022-08-23T22:12:25.122Z,101056.59
2022-08-23T22:14:31.457Z,101055.75
2022-08-23T22:16:33.499Z,101056.28
2022-08-23T22:18:35.651Z,101054.25
2022-08-23T22:20:37.639Z,101051.13
2022-08-23T22:22:39.803Z,101054.03
2022-08-23T22:24:41.596Z,101046.34
2022-08-23T22:26:44.576Z,101034.25
2022-08-23T22:28:46.826Z,101050.41
2022-08-23T22:30:48.615Z,101047.31
2022-08-23T22:32:50.615Z,101043.41
2022-08-23T22:34:52.420Z,101051.06
2022-08-23T22:36:54.517Z,101026.53
2022-08-23T22:38:57.131Z,101038.22
2022-08-23T22:40:59.079Z,101040.25
2022-08-23T22:43:00.886Z,101036.34
2022-08-23T22:45:04.375Z,101038.97
2022-08-23T22:47:06.231Z,101020.47
2022-08-23T22:49:08.700Z,101017.78
2022-08-23T22:51:13.652Z,101025.53
2022-08-23T22:53:16.573Z,101027.34
2022-08-23T22:55:18.606Z,101025.94
2022-08-23T22:57:20.504Z,101036.06
2022-08-23T22:59:27.700Z,101039.97
2022-08-23T23:01:38.108Z,101035.28
2022-08-23T23:03:41.287Z,101038.63
2022-08-23T23:05:43.502Z,101042.59
2022-08-23T23:07:47.346Z,101040.53
2022-08-23T23:09:49.379Z,101037.19
2022-08-23T23:11:51.154Z,101032.22
2022-08-23T23:13:53.168Z,101027.66
2022-08-23T23:15:56.744Z,101035.56
2022-08-23T23:17:58.351Z,101037.25
2022-08-23T23:20:00.234Z,101030.81
2022-08-23T23:22:02.264Z,101038.53
2022-08-23T23:24:05.476Z,101048.69
2022-08-23T23:26:07.286Z,101046.63
2022-08-23T23:28:09.836Z,101049.69
2022-08-23T23:30:12.009Z,101041.38
2022-08-23T23:32:13.889Z,101040.31
2022-08-23T23:34:16.429Z,101046.94
2022-08-23T23:36:18.245Z,101042.59
2022-08-23T23:38:20.169Z,101042.81
2022-08-23T23:40:22.772Z,101027.47
2022-08-23T23:42:24.745Z,101042.03
2022-08-23T23:44:30.901Z,101040.56
2022-08-23T23:46:34.208Z,101042.44
2022-08-23T23:48:35.947Z,101038.69
2022-08-23T23:50:45.572Z,101046.34
2022-08-23T23:52:48.728Z,101040.94
2022-08-23T23:54:50.492Z,101045.47
2022-08-23T23:56:52.382Z,101046.47
2022-08-23T23:58:55.905Z,101045.03
